sensor_id;sensor_type;location;lat;lon;timestamp;pressure;altitude;pressure_sealevel;temperature;humidity
53940;BME280;39850;43.324;21.916;2023-04-06T00:11:26;992.0;;;4.5;75.0
53940;BME280;39850;43.324;21.916;2023-04-06T00:16:06;992.0;;;4.5;75.0
53940;BME280;39850;43.324;21.916;2023-04-06T00:20:43;992.0;;;4.0;75.0
53940;BME280;39850;43.324;21.916;2023-04-06T00:25:20;992.0;;;4.0;75.0
53940;BME280;39850;43.324;21.916;2023-04-06T00:29:57;992.0;;;3.5;75.0
53940;BME280;39850;43.324;21.916;2023-04-06T00:34:34;992.0;;;3.5;75.0
53940;BME280;39850;43.324;21.916;2023-04-06T00:39:11;992.0;;;3.5;75.0
53940;BME280;39850;43.324;21.916;2023-04-06T00:43:48;992.0;;;3.5;75.0
53940;BME280;39850;43.324;21.916;2023-04-06T00:48:25;992.0;;;3.5;75.0
53940;BME280;39850;43.324;21.916;2023-04-06T00:53:03;992.0;;;3.5;75.0
53940;BME280;39850;43.324;21.916;2023-04-06T00:57:40;992.0;;;3.5;75.0
53940;BME280;39850;43.324;21.916;2023-04-06T01:29:57;992.0;;;3.5;79.0
53940;BME280;39850;43.324;21.916;2023-04-06T01:34:34;992.0;;;3.5;79.0
53940;BME280;39850;43.324;21.916;2023-04-06T01:39:11;992.0;;;3.5;79.0
53940;BME280;39850;43.324;21.916;2023-04-06T01:43:49;992.0;;;3.5;78.0
53940;BME280;39850;43.324;21.916;2023-04-06T01:48:27;992.0;;;3.5;78.0
53940;BME280;39850;43.324;21.916;2023-04-06T01:53:04;992.0;;;3.5;77.0
53940;BME280;39850;43.324;21.916;2023-04-06T01:57:41;992.0;;;3.5;77.0
53940;BME280;39850;43.324;21.916;2023-04-06T02:02:18;992.0;;;4.0;76.0
53940;BME280;39850;43.324;21.916;2023-04-06T02:06:55;992.0;;;4.0;76.0
53940;BME280;39850;43.324;21.916;2023-04-06T02:11:32;992.0;;;4.4;77.0
53940;BME280;39850;43.324;21.916;2023-04-06T02:16:09;992.0;;;4.4;77.0
53940;BME280;39850;43.324;21.916;2023-04-06T02:53:04;991.0;;;4.5;76.0
53940;BME280;39850;43.324;21.916;2023-04-06T02:57:41;991.0;;;4.5;76.0
53940;BME280;39850;43.324;21.916;2023-04-06T03:02:18;991.0;;;4.2;76.0
53940;BME280;39850;43.324;21.916;2023-04-06T03:06:55;991.0;;;4.2;76.0
53940;BME280;39850;43.324;21.916;2023-04-06T03:11:32;991.0;;;4.0;77.0
53940;BME280;39850;43.324;21.916;2023-04-06T03:16:09;991.0;;;4.0;77.0
53940;BME280;39850;43.324;21.916;2023-04-06T03:20:46;991.0;;;3.8;78.0
53940;BME280;39850;43.324;21.916;2023-04-06T03:25:23;991.0;;;3.8;78.0
53940;BME280;39850;43.324;21.916;2023-04-06T03:30:01;991.0;;;3.5;79.0
53940;BME280;39850;43.324;21.916;2023-04-06T03:34:39;991.0;;;3.5;79.0
53940;BME280;39850;43.324;21.916;2023-04-06T03:39:16;991.0;;;3.5;79.0
53940;BME280;39850;43.324;21.916;2023-04-06T04:11:32;992.0;;;4.5;76.0
53940;BME280;39850;43.324;21.916;2023-04-06T04:16:08;992.0;;;4.5;76.0
53940;BME280;39850;43.324;21.916;2023-04-06T04:20:46;992.0;;;4.5;75.0
53940;BME280;39850;43.324;21.916;2023-04-06T04:25:24;992.0;;;4.5;75.0
53940;BME280;39850;43.324;21.916;2023-04-06T04:30:01;992.0;;;4.5;75.0
53940;BME280;39850;43.324;21.916;2023-04-06T04:34:38;992.0;;;4.5;75.0
53940;BME280;39850;43.324;21.916;2023-04-06T04:39:14;992.0;;;4.5;75.0
53940;BME280;39850;43.324;21.916;2023-04-06T04:43:51;992.0;;;4.5;75.0
53940;BME280;39850;43.324;21.916;2023-04-06T04:48:28;992.0;;;4.5;75.0
53940;BME280;39850;43.324;21.916;2023-04-06T04:53:05;992.0;;;4.5;75.0
53940;BME280;39850;43.324;21.916;2023-04-06T04:57:41;992.0;;;4.5;75.0
53940;BME280;39850;43.324;21.916;2023-04-06T05:34:52;992.0;;;3.5;77.0
53940;BME280;39850;43.324;21.916;2023-04-06T05:39:29;992.0;;;3.5;77.0
53940;BME280;39850;43.324;21.916;2023-04-06T05:44:05;992.0;;;3.9;76.0
53940;BME280;39850;43.324;21.916;2023-04-06T05:48:42;992.0;;;3.9;76.0
53940;BME280;39850;43.324;21.916;2023-04-06T05:53:19;992.0;;;4.3;76.0
53940;BME280;39850;43.324;21.916;2023-04-06T05:57:56;992.0;;;4.3;76.0
53940;BME280;39850;43.324;21.916;2023-04-06T06:02:33;992.0;;;4.4;76.0
53940;BME280;39850;43.324;21.916;2023-04-06T06:07:10;992.0;;;4.4;76.0
53940;BME280;39850;43.324;21.916;2023-04-06T06:11:48;991.0;;;4.5;75.0
53940;BME280;39850;43.324;21.916;2023-04-06T06:16:25;991.0;;;4.5;75.0
53940;BME280;39850;43.324;21.916;2023-04-06T06:53:20;991.0;;;4.4;69.0
53940;BME280;39850;43.324;21.916;2023-04-06T06:57:57;991.0;;;4.4;69.0
53940;BME280;39850;43.324;21.916;2023-04-06T07:02:36;991.0;;;4.4;70.0
53940;BME280;39850;43.324;21.916;2023-04-06T07:07:12;991.0;;;4.4;70.0
53940;BME280;39850;43.324;21.916;2023-04-06T07:11:49;991.0;;;4.4;69.0
53940;BME280;39850;43.324;21.916;2023-04-06T07:16:26;991.0;;;4.4;69.0
53940;BME280;39850;43.324;21.916;2023-04-06T07:21:04;991.0;;;4.8;70.0
53940;BME280;39850;43.324;21.916;2023-04-06T07:25:42;991.0;;;4.8;70.0
53940;BME280;39850;43.324;21.916;2023-04-06T07:30:20;991.0;;;4.8;70.0
53940;BME280;39850;43.324;21.916;2023-04-06T07:34:57;991.0;;;5.2;69.0
53940;BME280;39850;43.324;21.916;2023-04-06T07:39:35;991.0;;;5.2;69.0
53940;BME280;39850;43.324;21.916;2023-04-06T08:11:53;991.0;;;6.2;64.0
53940;BME280;39850;43.324;21.916;2023-04-06T08:16:30;991.0;;;6.2;64.0
53940;BME280;39850;43.324;21.916;2023-04-06T08:21:07;991.0;;;6.2;64.0
53940;BME280;39850;43.324;21.916;2023-04-06T08:25:44;991.0;;;6.2;64.0
53940;BME280;39850;43.324;21.916;2023-04-06T08:30:21;991.0;;;6.2;64.0
53940;BME280;39850;43.324;21.916;2023-04-06T08:34:58;991.0;;;6.2;64.0
53940;BME280;39850;43.324;21.916;2023-04-06T08:39:35;991.0;;;6.2;64.0
53940;BME280;39850;43.324;21.916;2023-04-06T08:44:13;991.0;;;6.2;64.0
53940;BME280;39850;43.324;21.916;2023-04-06T08:48:51;991.0;;;6.2;64.0
53940;BME280;39850;43.324;21.916;2023-04-06T08:53:29;991.0;;;6.3;64.0
53940;BME280;39850;43.324;21.916;2023-04-06T08:58:08;991.0;;;6.3;64.0
53940;BME280;39850;43.324;21.916;2023-04-06T09:35:28;991.0;;;6.4;58.0
53940;BME280;39850;43.324;21.916;2023-04-06T09:40:11;991.0;;;6.4;58.0
53940;BME280;39850;43.324;21.916;2023-04-06T09:44:47;991.0;;;6.3;57.0
53940;BME280;39850;43.324;21.916;2023-04-06T09:49:33;991.0;;;6.3;57.0
53940;BME280;39850;43.324;21.916;2023-04-06T09:54:26;991.0;;;6.2;58.0
53940;BME280;39850;43.324;21.916;2023-04-06T09:59:37;991.0;;;6.2;58.0
53940;BME280;39850;43.324;21.916;2023-04-06T10:04:56;991.0;;;6.2;59.0
53940;BME280;39850;43.324;21.916;2023-04-06T10:09:48;991.0;;;6.2;59.0
53940;BME280;39850;43.324;21.916;2023-04-06T10:14:27;991.0;;;6.2;60.0
53940;BME280;39850;43.324;21.916;2023-04-06T10:19:35;991.0;;;6.2;60.0
53940;BME280;39850;43.324;21.916;2023-04-06T10:52:36;990.0;;;8.1;54.0
53940;BME280;39850;43.324;21.916;2023-04-06T10:57:13;990.0;;;8.1;54.0
53940;BME280;39850;43.324;21.916;2023-04-06T11:01:50;990.0;;;8.1;55.0
53940;BME280;39850;43.324;21.916;2023-04-06T11:06:31;990.0;;;8.1;55.0
53940;BME280;39850;43.324;21.916;2023-04-06T11:11:18;990.0;;;8.1;55.0
53940;BME280;39850;43.324;21.916;2023-04-06T11:15:57;990.0;;;8.1;54.0
53940;BME280;39850;43.324;21.916;2023-04-06T11:20:35;990.0;;;8.1;54.0
53940;BME280;39850;43.324;21.916;2023-04-06T11:25:12;990.0;;;8.1;54.0
53940;BME280;39850;43.324;21.916;2023-04-06T11:29:51;990.0;;;8.1;54.0
53940;BME280;39850;43.324;21.916;2023-04-06T11:34:39;990.0;;;8.1;53.0
53940;BME280;39850;43.324;21.916;2023-04-06T11:39:26;990.0;;;8.1;53.0
53940;BME280;39850;43.324;21.916;2023-04-06T12:16:27;990.0;;;6.8;53.0
53940;BME280;39850;43.324;21.916;2023-04-06T12:21:04;990.0;;;6.8;53.0
53940;BME280;39850;43.324;21.916;2023-04-06T12:25:44;990.0;;;7.0;53.0
53940;BME280;39850;43.324;21.916;2023-04-06T12:30:21;990.0;;;7.0;53.0
53940;BME280;39850;43.324;21.916;2023-04-06T12:34:58;990.0;;;7.1;54.0
53940;BME280;39850;43.324;21.916;2023-04-06T12:39:35;990.0;;;7.1;54.0
53940;BME280;39850;43.324;21.916;2023-04-06T12:44:12;990.0;;;7.2;54.0
53940;BME280;39850;43.324;21.916;2023-04-06T12:48:49;990.0;;;7.2;54.0
53940;BME280;39850;43.324;21.916;2023-04-06T12:53:28;990.0;;;7.3;54.0
53940;BME280;39850;43.324;21.916;2023-04-06T12:58:06;990.0;;;7.3;54.0
53940;BME280;39850;43.324;21.916;2023-04-06T13:35:19;989.0;;;6.7;51.0
53940;BME280;39850;43.324;21.916;2023-04-06T13:39:57;989.0;;;6.7;51.0
53940;BME280;39850;43.324;21.916;2023-04-06T13:44:34;989.0;;;6.4;52.0
53940;BME280;39850;43.324;21.916;2023-04-06T13:49:11;989.0;;;6.4;52.0
53940;BME280;39850;43.324;21.916;2023-04-06T13:53:48;989.0;;;6.4;53.0
53940;BME280;39850;43.324;21.916;2023-04-06T13:58:26;989.0;;;6.4;53.0
53940;BME280;39850;43.324;21.916;2023-04-06T14:03:03;989.0;;;6.3;54.0
53940;BME280;39850;43.324;21.916;2023-04-06T14:07:42;989.0;;;6.3;54.0
53940;BME280;39850;43.324;21.916;2023-04-06T14:12:19;989.0;;;6.4;55.0
53940;BME280;39850;43.324;21.916;2023-04-06T14:16:56;989.0;;;6.4;55.0
53940;BME280;39850;43.324;21.916;2023-04-06T14:21:33;989.0;;;6.4;55.0
53940;BME280;39850;43.324;21.916;2023-04-06T14:53:49;989.0;;;8.2;49.0
53940;BME280;39850;43.324;21.916;2023-04-06T14:58:26;989.0;;;8.2;49.0
53940;BME280;39850;43.324;21.916;2023-04-06T15:03:04;989.0;;;8.1;49.0
53940;BME280;39850;43.324;21.916;2023-04-06T15:07:40;989.0;;;8.1;49.0
53940;BME280;39850;43.324;21.916;2023-04-06T15:12:17;989.0;;;8.1;49.0
53940;BME280;39850;43.324;21.916;2023-04-06T15:16:54;989.0;;;8.1;49.0
53940;BME280;39850;43.324;21.916;2023-04-06T15:21:31;989.0;;;8.1;49.0
53940;BME280;39850;43.324;21.916;2023-04-06T15:26:08;989.0;;;8.0;49.0
53940;BME280;39850;43.324;21.916;2023-04-06T15:30:45;989.0;;;8.0;49.0
53940;BME280;39850;43.324;21.916;2023-04-06T15:35:23;989.0;;;8.0;50.0
53940;BME280;39850;43.324;21.916;2023-04-06T15:40:01;989.0;;;8.0;50.0
53940;BME280;39850;43.324;21.916;2023-04-06T16:16:58;989.0;;;8.2;49.0
53940;BME280;39850;43.324;21.916;2023-04-06T16:21:35;989.0;;;8.2;49.0
53940;BME280;39850;43.324;21.916;2023-04-06T16:26:13;989.0;;;8.2;49.0
53940;BME280;39850;43.324;21.916;2023-04-06T16:30:52;989.0;;;8.2;49.0
53940;BME280;39850;43.324;21.916;2023-04-06T16:35:29;989.0;;;8.2;49.0
53940;BME280;39850;43.324;21.916;2023-04-06T16:40:10;989.0;;;8.2;49.0
53940;BME280;39850;43.324;21.916;2023-04-06T16:44:48;989.0;;;8.1;50.0
53940;BME280;39850;43.324;21.916;2023-04-06T16:49:25;989.0;;;8.1;50.0
53940;BME280;39850;43.324;21.916;2023-04-06T16:54:03;989.0;;;8.0;51.0
53940;BME280;39850;43.324;21.916;2023-04-06T16:58:40;989.0;;;8.0;51.0
53940;BME280;39850;43.324;21.916;2023-04-06T17:35:35;990.0;;;7.6;52.0
53940;BME280;39850;43.324;21.916;2023-04-06T17:40:13;990.0;;;7.6;52.0
53940;BME280;39850;43.324;21.916;2023-04-06T17:44:51;990.0;;;7.4;52.0
53940;BME280;39850;43.324;21.916;2023-04-06T17:49:28;990.0;;;7.4;52.0
53940;BME280;39850;43.324;21.916;2023-04-06T17:54:05;990.0;;;7.6;52.0
53940;BME280;39850;43.324;21.916;2023-04-06T17:58:41;990.0;;;7.6;52.0
53940;BME280;39850;43.324;21.916;2023-04-06T18:03:18;990.0;;;7.4;51.0
53940;BME280;39850;43.324;21.916;2023-04-06T18:07:56;990.0;;;7.4;51.0
53940;BME280;39850;43.324;21.916;2023-04-06T18:12:33;990.0;;;7.4;51.0
53940;BME280;39850;43.324;21.916;2023-04-06T18:17:10;990.0;;;7.6;52.0
53940;BME280;39850;43.324;21.916;2023-04-06T18:21:47;990.0;;;7.6;52.0
53940;BME280;39850;43.324;21.916;2023-04-06T18:54:29;991.0;;;7.3;56.0
53940;BME280;39850;43.324;21.916;2023-04-06T18:59:05;991.0;;;7.3;56.0
53940;BME280;39850;43.324;21.916;2023-04-06T19:03:42;991.0;;;7.0;56.0
53940;BME280;39850;43.324;21.916;2023-04-06T19:08:18;991.0;;;7.0;56.0
53940;BME280;39850;43.324;21.916;2023-04-06T19:12:56;991.0;;;7.0;56.0
53940;BME280;39850;43.324;21.916;2023-04-06T19:17:33;991.0;;;7.3;56.0
53940;BME280;39850;43.324;21.916;2023-04-06T19:22:11;991.0;;;7.3;56.0
53940;BME280;39850;43.324;21.916;2023-04-06T19:26:48;991.0;;;7.0;56.0
53940;BME280;39850;43.324;21.916;2023-04-06T19:31:25;991.0;;;7.0;56.0
53940;BME280;39850;43.324;21.916;2023-04-06T19:36:06;991.0;;;7.3;56.0
53940;BME280;39850;43.324;21.916;2023-04-06T19:40:44;991.0;;;7.3;56.0
53940;BME280;39850;43.324;21.916;2023-04-06T20:17:38;991.0;;;6.4;63.0
53940;BME280;39850;43.324;21.916;2023-04-06T20:22:15;991.0;;;6.4;63.0
53940;BME280;39850;43.324;21.916;2023-04-06T20:26:52;991.0;;;6.1;63.0
53940;BME280;39850;43.324;21.916;2023-04-06T20:31:29;991.0;;;6.1;63.0
53940;BME280;39850;43.324;21.916;2023-04-06T20:36:07;991.0;;;5.8;63.0
53940;BME280;39850;43.324;21.916;2023-04-06T20:40:45;991.0;;;5.8;63.0
53940;BME280;39850;43.324;21.916;2023-04-06T20:45:23;991.0;;;5.6;62.0
53940;BME280;39850;43.324;21.916;2023-04-06T20:50:01;991.0;;;5.6;62.0
53940;BME280;39850;43.324;21.916;2023-04-06T20:54:38;991.0;;;5.4;62.0
53940;BME280;39850;43.324;21.916;2023-04-06T20:59:15;991.0;;;5.4;62.0
53940;BME280;39850;43.324;21.916;2023-04-06T21:36:09;991.0;;;5.5;63.0
53940;BME280;39850;43.324;21.916;2023-04-06T21:40:55;991.0;;;5.5;63.0
53940;BME280;39850;43.324;21.916;2023-04-06T21:45:32;991.0;;;5.5;64.0
53940;BME280;39850;43.324;21.916;2023-04-06T21:50:10;991.0;;;5.5;64.0
53940;BME280;39850;43.324;21.916;2023-04-06T21:54:47;991.0;;;5.5;65.0
53940;BME280;39850;43.324;21.916;2023-04-06T21:59:24;991.0;;;5.5;65.0
53940;BME280;39850;43.324;21.916;2023-04-06T22:04:01;991.0;;;5.5;65.0
53940;BME280;39850;43.324;21.916;2023-04-06T22:08:38;991.0;;;5.5;65.0
53940;BME280;39850;43.324;21.916;2023-04-06T22:13:15;991.0;;;5.5;65.0
53940;BME280;39850;43.324;21.916;2023-04-06T22:17:52;991.0;;;5.5;65.0
53940;BME280;39850;43.324;21.916;2023-04-06T22:22:29;991.0;;;5.5;65.0
53940;BME280;39850;43.324;21.916;2023-04-06T22:54:47;991.0;;;5.5;66.0
53940;BME280;39850;43.324;21.916;2023-04-06T22:59:23;991.0;;;5.5;66.0
53940;BME280;39850;43.324;21.916;2023-04-06T23:04:00;991.0;;;5.5;66.0
53940;BME280;39850;43.324;21.916;2023-04-06T23:08:36;991.0;;;5.5;66.0
53940;BME280;39850;43.324;21.916;2023-04-06T23:13:13;991.0;;;5.5;66.0
53940;BME280;39850;43.324;21.916;2023-04-06T23:17:50;991.0;;;5.5;67.0
53940;BME280;39850;43.324;21.916;2023-04-06T23:22:26;991.0;;;5.5;67.0
53940;BME280;39850;43.324;21.916;2023-04-06T23:27:03;991.0;;;5.5;67.0
53940;BME280;39850;43.324;21.916;2023-04-06T23:31:40;991.0;;;5.5;67.0
53940;BME280;39850;43.324;21.916;2023-04-06T23:36:17;991.0;;;5.5;67.0
53940;BME280;39850;43.324;21.916;2023-04-06T23:40:54;991.0;;;5.5;67.0
